createdAt,value
2022-10-12T00:01:43.504Z,8.40
2022-10-12T00:04:10.028Z,8.80
2022-10-12T00:06:36.549Z,7.63
2022-10-12T00:09:03.278Z,8.32
2022-10-12T00:11:30.100Z,8.82
2022-10-12T00:13:58.432Z,9.05
2022-10-12T00:16:26.374Z,8.43
2022-10-12T00:18:54.974Z,7.80
2022-10-12T00:21:22.226Z,8.10
2022-10-12T00:23:49.296Z,8.73
2022-10-12T00:26:18.719Z,7.85
2022-10-12T00:28:45.755Z,7.20
2022-10-12T00:31:15.934Z,7.20
2022-10-12T00:33:42.491Z,6.35
2022-10-12T00:36:15.176Z,7.35
2022-10-12T00:38:41.799Z,6.95
2022-10-12T00:41:08.298Z,7.03
2022-10-12T00:43:41.797Z,6.63
2022-10-12T00:46:18.307Z,6.90
2022-10-12T00:48:48.370Z,6.35
2022-10-12T00:51:16.731Z,6.25
2022-10-12T00:53:48.209Z,7.53
2022-10-12T00:56:22.172Z,5.73
2022-10-12T00:58:50.042Z,5.80
2022-10-12T01:01:17.830Z,7.05
2022-10-12T01:03:44.806Z,7.05
2022-10-12T01:06:11.856Z,6.40
2022-10-12T01:08:38.844Z,6.17
2022-10-12T01:11:05.516Z,6.68
2022-10-12T01:13:32.642Z,6.32
2022-10-12T01:16:53.439Z,6.57
2022-10-12T01:19:47.845Z,6.70
2022-10-12T01:22:19.125Z,5.67
2022-10-12T01:25:17.592Z,6.80
2022-10-12T01:28:02.443Z,6.25
2022-10-12T01:30:36.428Z,5.68
2022-10-12T01:33:19.477Z,7.25
2022-10-12T01:35:58.489Z,7.23
2022-10-12T01:38:43.318Z,7.03
2022-10-12T01:41:52.379Z,6.30
2022-10-12T01:44:23.565Z,6.07
2022-10-12T01:46:52.049Z,6.20
2022-10-12T01:49:23.711Z,7.17
2022-10-12T01:51:59.016Z,5.65
2022-10-12T01:54:49.334Z,7.05
2022-10-12T01:57:49.969Z,6.55
2022-10-12T02:00:17.853Z,6.30
2022-10-12T02:03:10.648Z,6.80
2022-10-12T02:05:46.243Z,7.53
2022-10-12T02:08:34.356Z,6.82
2022-10-12T02:11:07.462Z,6.57
2022-10-12T02:13:38.605Z,6.63
2022-10-12T02:16:10.479Z,6.67
2022-10-12T02:18:42.579Z,6.45
2022-10-12T02:21:11.540Z,5.90
2022-10-12T02:23:39.023Z,6.63
2022-10-12T02:26:07.982Z,7.38
2022-10-12T02:28:37.126Z,7.17
2022-10-12T02:31:12.877Z,6.72
2022-10-12T02:33:46.899Z,7.05
2022-10-12T02:36:20.525Z,6.40
2022-10-12T02:39:28.502Z,6.82
2022-10-12T02:42:05.282Z,6.43
2022-10-12T02:44:35.358Z,6.65
2022-10-12T02:47:04.472Z,6.05
2022-10-12T02:49:34.030Z,6.60
2022-10-12T02:52:03.801Z,6.10
2022-10-12T02:54:31.097Z,7.00
2022-10-12T02:56:57.592Z,6.72
2022-10-12T02:59:24.223Z,6.50
2022-10-12T03:01:50.749Z,7.32
2022-10-12T03:04:17.333Z,6.50
2022-10-12T03:06:43.814Z,7.00
2022-10-12T03:09:10.429Z,6.43
2022-10-12T03:11:37.838Z,6.55
2022-10-12T03:14:04.659Z,6.55
2022-10-12T03:16:31.141Z,6.53
2022-10-12T03:18:57.595Z,6.97
2022-10-12T03:21:24.106Z,7.03
2022-10-12T03:23:50.724Z,6.68
2022-10-12T03:26:17.276Z,6.57
2022-10-12T03:28:43.812Z,7.18
2022-10-12T03:31:10.381Z,7.60
2022-10-12T03:33:36.834Z,6.70
2022-10-12T03:36:03.750Z,7.05
2022-10-12T03:38:30.309Z,7.60
2022-10-12T03:40:57.385Z,7.15
2022-10-12T03:43:23.960Z,7.80
2022-10-12T03:45:50.502Z,8.07
2022-10-12T03:48:16.962Z,7.05
2022-10-12T03:50:49.272Z,6.85
2022-10-12T03:53:16.636Z,6.82
2022-10-12T03:55:43.101Z,6.77
2022-10-12T03:58:09.798Z,7.10
2022-10-12T04:00:36.323Z,7.28
2022-10-12T04:03:02.866Z,7.40
2022-10-12T04:05:30.210Z,7.00
2022-10-12T04:07:57.181Z,7.20
2022-10-12T04:10:24.008Z,7.40
2022-10-12T04:12:50.518Z,7.15
2022-10-12T04:15:18.236Z,7.03
2022-10-12T04:17:44.965Z,7.85
2022-10-12T04:20:12.142Z,7.20
2022-10-12T04:22:39.320Z,7.35
2022-10-12T04:25:06.315Z,7.60
2022-10-12T04:27:32.829Z,7.05
2022-10-12T04:29:59.329Z,7.50
2022-10-12T04:32:25.822Z,6.67
2022-10-12T04:34:52.273Z,8.45
2022-10-12T04:37:18.850Z,8.38
2022-10-12T04:39:45.375Z,7.45
2022-10-12T04:42:11.853Z,7.45
2022-10-12T04:44:38.372Z,8.77
2022-10-12T04:47:04.859Z,7.95
2022-10-12T04:49:31.321Z,7.45
2022-10-12T04:51:57.839Z,7.38
2022-10-12T04:54:24.822Z,7.95
2022-10-12T04:56:51.298Z,7.00
2022-10-12T04:59:17.877Z,6.53
2022-10-12T05:01:44.454Z,8.13
2022-10-12T05:04:11.055Z,8.07
2022-10-12T05:06:37.601Z,7.70
2022-10-12T05:09:04.303Z,7.13
2022-10-12T05:11:30.874Z,8.23
2022-10-12T05:13:57.971Z,8.13
2022-10-12T05:16:24.919Z,7.68
2022-10-12T05:18:51.448Z,7.03
2022-10-12T05:21:18.003Z,7.43
2022-10-12T05:23:44.520Z,7.53
2022-10-12T05:26:11.033Z,8.02
2022-10-12T05:28:41.170Z,8.50
2022-10-12T05:31:08.276Z,8.35
2022-10-12T05:33:34.783Z,8.23
2022-10-12T05:36:01.286Z,8.20
2022-10-12T05:38:28.094Z,9.38
2022-10-12T05:41:00.036Z,9.20
2022-10-12T05:43:27.454Z,8.82
2022-10-12T05:45:54.190Z,9.73
2022-10-12T05:48:20.684Z,10.18
2022-10-12T05:50:47.394Z,9.45
2022-10-12T05:53:13.922Z,11.30
2022-10-12T05:55:40.482Z,9.23
2022-10-12T05:58:07.069Z,9.37
2022-10-12T06:00:33.644Z,9.50
2022-10-12T06:03:00.197Z,9.55
2022-10-12T06:05:26.737Z,10.95
2022-10-12T06:07:53.227Z,10.73
2022-10-12T06:10:19.720Z,10.20
2022-10-12T06:12:46.322Z,10.60
2022-10-12T06:15:12.900Z,10.38
2022-10-12T06:17:39.394Z,10.30
2022-10-12T06:20:06.440Z,10.40
2022-10-12T06:22:32.982Z,9.67
2022-10-12T06:24:59.511Z,10.20
2022-10-12T06:27:25.987Z,10.23
2022-10-12T06:29:52.661Z,10.95
2022-10-12T06:32:19.215Z,10.00
2022-10-12T06:34:46.592Z,9.97
2022-10-12T06:37:25.368Z,10.38
2022-10-12T06:39:59.549Z,10.30
2022-10-12T06:42:26.082Z,9.70
2022-10-12T06:44:52.644Z,10.30
2022-10-12T06:47:19.211Z,11.47
2022-10-12T06:49:45.813Z,10.57
2022-10-12T06:52:12.366Z,9.95
2022-10-12T06:54:38.852Z,10.77
2022-10-12T06:57:06.108Z,9.27
2022-10-12T06:59:32.829Z,10.30
2022-10-12T07:01:59.445Z,10.35
2022-10-12T07:04:25.981Z,12.85
2022-10-12T07:06:52.477Z,12.07
2022-10-12T07:09:18.949Z,11.25
2022-10-12T07:11:45.426Z,11.60
2022-10-12T07:14:11.943Z,12.48
2022-10-12T07:16:38.491Z,12.52
2022-10-12T07:19:05.123Z,10.90
2022-10-12T07:21:31.663Z,11.65
2022-10-12T07:23:58.211Z,13.23
2022-10-12T07:26:24.803Z,12.23
2022-10-12T07:28:51.538Z,11.98
2022-10-12T07:31:18.053Z,12.00
2022-10-12T07:33:44.556Z,12.27
2022-10-12T07:36:15.823Z,13.47
2022-10-12T07:38:45.187Z,13.57
2022-10-12T07:41:12.868Z,12.32
2022-10-12T07:43:39.417Z,12.45
2022-10-12T07:46:06.485Z,13.18
2022-10-12T07:48:33.386Z,11.00
2022-10-12T07:51:07.699Z,10.77
2022-10-12T07:53:35.380Z,11.77
2022-10-12T07:56:03.513Z,10.30
2022-10-12T07:58:30.039Z,10.15
2022-10-12T08:00:56.619Z,9.80
2022-10-12T08:03:23.223Z,9.95
2022-10-12T08:05:49.733Z,9.40
2022-10-12T08:08:16.221Z,10.00
2022-10-12T08:10:42.842Z,9.85
2022-10-12T08:13:09.361Z,9.53
2022-10-12T08:15:35.859Z,10.98
2022-10-12T08:18:03.613Z,10.80
2022-10-12T08:20:30.155Z,9.40
2022-10-12T08:22:56.703Z,10.88
2022-10-12T08:25:23.493Z,10.03
2022-10-12T08:27:49.983Z,10.10
2022-10-12T08:30:16.557Z,10.38
2022-10-12T08:32:43.050Z,9.50
2022-10-12T08:35:09.585Z,8.68
2022-10-12T08:37:36.207Z,9.80
2022-10-12T08:40:03.740Z,9.82
2022-10-12T08:42:37.612Z,9.40
2022-10-12T08:45:25.473Z,8.68
2022-10-12T08:48:01.688Z,8.63
2022-10-12T08:50:40.034Z,8.00
2022-10-12T08:53:40.298Z,9.07
2022-10-12T08:56:07.282Z,9.05
2022-10-12T08:58:37.295Z,7.70
2022-10-12T09:01:19.246Z,7.32
2022-10-12T09:04:09.476Z,5.57
2022-10-12T09:06:50.239Z,6.15
2022-10-12T09:09:50.879Z,6.40
2022-10-12T09:12:35.489Z,5.15
2022-10-12T09:15:08.650Z,5.70
2022-10-12T09:17:47.570Z,6.80
2022-10-12T09:20:30.801Z,5.35
2022-10-12T09:23:20.167Z,5.82
2022-10-12T09:25:47.281Z,6.50
2022-10-12T09:28:25.873Z,6.25
2022-10-12T09:31:11.649Z,6.23
2022-10-12T09:33:46.009Z,6.97
2022-10-12T09:36:19.460Z,6.60
2022-10-12T09:38:46.822Z,6.25
2022-10-12T09:41:25.238Z,6.20
2022-10-12T09:43:59.961Z,6.10
2022-10-12T09:46:40.076Z,5.78
2022-10-12T09:49:06.837Z,6.68
2022-10-12T09:51:33.642Z,5.82
2022-10-12T09:54:05.862Z,6.15
2022-10-12T09:56:41.425Z,5.83
2022-10-12T09:59:39.427Z,6.75
2022-10-12T10:02:14.761Z,5.68
2022-10-12T10:04:43.084Z,4.80
2022-10-12T10:07:34.826Z,5.10
2022-10-12T10:10:04.314Z,5.03
2022-10-12T10:12:31.320Z,5.50
2022-10-12T10:14:59.245Z,5.53
2022-10-12T10:17:32.588Z,6.10
2022-10-12T10:20:03.418Z,6.63
2022-10-12T10:22:30.455Z,6.50
2022-10-12T10:25:00.705Z,6.03
2022-10-12T10:27:30.179Z,6.65
2022-10-12T10:30:29.742Z,5.78
2022-10-12T10:33:25.102Z,5.70
2022-10-12T10:35:59.830Z,5.70
2022-10-12T10:38:27.182Z,5.15
2022-10-12T10:40:57.126Z,5.90
2022-10-12T10:43:27.747Z,6.45
2022-10-12T10:46:03.672Z,6.38
2022-10-12T10:48:37.838Z,5.77
2022-10-12T10:51:07.048Z,5.30
2022-10-12T10:53:44.652Z,5.80
2022-10-12T10:56:21.269Z,5.85
2022-10-12T10:58:56.554Z,6.35
2022-10-12T11:01:36.117Z,5.33
2022-10-12T11:04:07.297Z,5.47
2022-10-12T11:06:42.905Z,5.40
2022-10-12T11:09:29.880Z,5.90
2022-10-12T11:12:09.044Z,5.97
2022-10-12T11:14:42.985Z,6.17
2022-10-12T11:17:20.414Z,5.28
2022-10-12T11:19:55.700Z,5.70
2022-10-12T11:22:36.950Z,4.93
2022-10-12T11:25:14.593Z,6.10
2022-10-12T11:27:42.192Z,4.60
2022-10-12T11:30:28.830Z,5.38
2022-10-12T11:33:01.649Z,4.80
2022-10-12T11:35:32.496Z,4.68
2022-10-12T11:38:43.134Z,5.50
2022-10-12T11:41:35.291Z,4.70
2022-10-12T11:44:35.266Z,4.40
2022-10-12T11:47:12.078Z,4.85
2022-10-12T11:49:41.622Z,4.18
2022-10-12T11:52:12.296Z,4.70
2022-10-12T11:54:52.526Z,3.97
2022-10-12T11:57:27.161Z,4.20
2022-10-12T12:00:01.683Z,4.60
2022-10-12T12:02:40.827Z,3.83
2022-10-12T12:05:16.454Z,3.72
2022-10-12T12:07:53.992Z,3.83
2022-10-12T12:10:23.470Z,4.07
2022-10-12T12:13:13.065Z,3.17
2022-10-12T12:15:41.784Z,4.35
2022-10-12T12:18:21.586Z,3.70
2022-10-12T12:20:48.020Z,3.20
2022-10-12T12:23:39.569Z,3.60
2022-10-12T12:26:16.163Z,3.13
2022-10-12T12:28:52.844Z,3.38
2022-10-12T12:31:22.389Z,3.10
2022-10-12T12:34:00.587Z,3.37
2022-10-12T12:36:30.035Z,2.53
2022-10-12T12:38:56.827Z,2.70
2022-10-12T12:41:56.299Z,3.83
2022-10-12T12:44:45.957Z,2.40
2022-10-12T12:47:43.366Z,2.40
2022-10-12T12:50:29.295Z,3.95
2022-10-12T12:53:19.434Z,2.60
2022-10-12T12:56:04.661Z,2.10
2022-10-12T12:58:40.476Z,2.60
2022-10-12T13:01:44.919Z,2.77
2022-10-12T13:05:02.932Z,2.40
2022-10-12T13:08:04.342Z,2.70
2022-10-12T13:10:50.580Z,3.45
2022-10-12T13:13:19.923Z,2.67
2022-10-12T13:15:52.295Z,3.77
2022-10-12T13:18:47.578Z,2.92
2022-10-12T13:21:27.060Z,2.70
2022-10-12T13:24:03.286Z,3.13
2022-10-12T13:26:32.524Z,2.90
2022-10-12T13:29:01.784Z,3.60
2022-10-12T13:31:41.541Z,3.33
2022-10-12T13:34:13.873Z,3.33
2022-10-12T13:36:49.354Z,3.97
2022-10-12T13:39:18.732Z,3.33
2022-10-12T13:41:48.340Z,2.80
2022-10-12T13:44:29.129Z,3.10
2022-10-12T13:46:56.817Z,2.80
2022-10-12T13:49:34.806Z,3.58
2022-10-12T13:52:18.164Z,3.10
2022-10-12T13:54:48.634Z,4.00
2022-10-12T13:57:23.986Z,2.60
2022-10-12T13:59:56.314Z,3.22
2022-10-12T14:02:26.683Z,2.80
2022-10-12T14:04:55.903Z,2.67
2022-10-12T14:07:28.595Z,2.50
2022-10-12T14:09:59.864Z,4.03
2022-10-12T14:12:30.247Z,3.78
2022-10-12T14:14:57.404Z,3.08
2022-10-12T14:17:24.914Z,3.60
2022-10-12T14:19:53.601Z,4.73
2022-10-12T14:22:32.376Z,4.88
2022-10-12T14:25:20.713Z,4.03
2022-10-12T14:27:55.081Z,3.65
2022-10-12T14:30:29.419Z,2.28
2022-10-12T14:33:09.413Z,3.03
2022-10-12T14:35:37.996Z,5.65
2022-10-12T14:38:40.884Z,4.03
2022-10-12T14:41:29.449Z,3.05
2022-10-12T14:44:13.724Z,5.50
2022-10-12T14:46:52.397Z,3.67
2022-10-12T14:49:22.398Z,4.30
2022-10-12T14:51:51.429Z,3.42
2022-10-12T14:54:17.953Z,2.35
2022-10-12T14:56:44.491Z,3.67
2022-10-12T14:59:11.188Z,2.53
2022-10-12T15:01:41.058Z,4.38
2022-10-12T15:04:12.796Z,2.05
2022-10-12T15:06:39.552Z,2.33
2022-10-12T15:09:06.112Z,1.95
2022-10-12T15:11:32.732Z,2.50
2022-10-12T15:13:59.223Z,2.05
2022-10-12T15:16:28.589Z,2.10
2022-10-12T15:18:55.158Z,2.42
2022-10-12T15:21:21.830Z,2.47
2022-10-12T15:23:48.402Z,2.27
2022-10-12T15:26:17.503Z,2.70
2022-10-12T15:28:44.771Z,2.63
2022-10-12T15:31:18.258Z,2.50
2022-10-12T15:33:45.263Z,2.40
2022-10-12T15:36:11.870Z,2.87
2022-10-12T15:38:38.500Z,2.95
2022-10-12T15:41:05.780Z,2.20
2022-10-12T15:43:33.826Z,2.60
2022-10-12T15:46:02.490Z,2.67
2022-10-12T15:48:29.199Z,2.93
2022-10-12T15:50:55.997Z,2.20
2022-10-12T15:53:24.893Z,2.70
2022-10-12T15:55:53.034Z,2.75
2022-10-12T15:58:20.114Z,2.92
2022-10-12T16:00:46.834Z,2.97
2022-10-12T16:03:25.263Z,2.65
2022-10-12T16:05:53.318Z,3.45
2022-10-12T16:08:19.888Z,3.15
2022-10-12T16:10:47.945Z,2.75
2022-10-12T16:13:15.623Z,2.63
2022-10-12T16:15:42.658Z,2.92
2022-10-12T16:18:10.355Z,3.35
2022-10-12T16:20:38.844Z,3.08
2022-10-12T16:23:08.770Z,3.03
2022-10-12T16:25:35.602Z,2.53
2022-10-12T16:28:02.083Z,2.55
2022-10-12T16:30:29.045Z,3.58
2022-10-12T16:32:55.595Z,2.58
2022-10-12T16:35:22.771Z,3.17
2022-10-12T16:37:49.251Z,2.90
2022-10-12T16:40:16.260Z,3.55
2022-10-12T16:42:42.959Z,3.28
2022-10-12T16:45:10.788Z,3.70
2022-10-12T16:47:42.775Z,4.55
2022-10-12T16:50:10.582Z,3.57
2022-10-12T16:52:37.195Z,5.00
2022-10-12T16:55:05.070Z,4.03
2022-10-12T16:57:31.599Z,4.45
2022-10-12T16:59:58.782Z,4.47
2022-10-12T17:02:27.398Z,4.10
2022-10-12T17:04:54.236Z,4.85
2022-10-12T17:07:20.719Z,4.78
2022-10-12T17:09:47.297Z,4.68
2022-10-12T17:12:14.167Z,4.70
2022-10-12T17:14:41.162Z,4.20
2022-10-12T17:17:07.647Z,4.63
2022-10-12T17:19:40.678Z,5.13
2022-10-12T17:22:09.660Z,5.60
2022-10-12T17:24:37.954Z,5.72
2022-10-12T17:27:06.715Z,5.30
2022-10-12T17:29:36.393Z,6.50
2022-10-12T17:32:04.096Z,5.63
2022-10-12T17:34:33.744Z,5.38
2022-10-12T17:37:02.078Z,5.35
2022-10-12T17:39:30.859Z,5.20
2022-10-12T17:41:57.383Z,4.43
2022-10-12T17:44:23.964Z,5.03
2022-10-12T17:46:50.565Z,6.03
2022-10-12T17:49:24.297Z,7.28
2022-10-12T17:51:51.512Z,7.17
2022-10-12T17:54:19.480Z,5.53
2022-10-12T17:56:46.420Z,5.93
2022-10-12T17:59:18.266Z,6.10
2022-10-12T18:01:45.078Z,6.10
2022-10-12T18:04:12.401Z,5.50
2022-10-12T18:06:39.554Z,5.85
2022-10-12T18:09:07.277Z,6.00
2022-10-12T18:11:33.899Z,5.78
2022-10-12T18:14:00.603Z,5.10
2022-10-12T18:16:30.067Z,5.37
2022-10-12T18:18:59.489Z,5.80
2022-10-12T18:21:28.427Z,5.63
2022-10-12T18:23:55.121Z,6.05
2022-10-12T18:26:22.362Z,5.95
2022-10-12T18:28:50.263Z,6.43
2022-10-12T18:31:22.417Z,5.35
2022-10-12T18:33:49.623Z,5.88
2022-10-12T18:36:17.787Z,5.28
2022-10-12T18:38:44.355Z,5.68
2022-10-12T18:41:13.940Z,5.97
2022-10-12T18:43:40.569Z,5.63
2022-10-12T18:46:07.988Z,4.47
2022-10-12T18:48:34.970Z,4.85
2022-10-12T18:51:15.735Z,6.63
2022-10-12T18:53:42.269Z,4.73
2022-10-12T18:56:09.963Z,4.40
2022-10-12T18:58:38.195Z,4.80
2022-10-12T19:01:15.995Z,4.78
2022-10-12T19:03:42.756Z,6.88
2022-10-12T19:06:12.410Z,4.23
2022-10-12T19:08:38.997Z,4.70
2022-10-12T19:11:08.161Z,6.78
2022-10-12T19:13:35.756Z,5.30
2022-10-12T19:16:08.033Z,5.07
2022-10-12T19:18:35.068Z,4.47
2022-10-12T19:21:07.217Z,5.15
2022-10-12T19:23:34.697Z,5.00
2022-10-12T19:26:08.194Z,4.90
2022-10-12T19:28:35.443Z,5.50
2022-10-12T19:31:08.325Z,5.20
2022-10-12T19:33:34.798Z,5.15
2022-10-12T19:36:06.213Z,5.13
2022-10-12T19:38:33.453Z,5.05
2022-10-12T19:41:00.276Z,5.78
2022-10-12T19:43:27.515Z,5.57
2022-10-12T19:45:54.008Z,4.93
2022-10-12T19:48:20.502Z,4.32
2022-10-12T19:50:47.020Z,5.10
2022-10-12T19:53:13.623Z,4.47
2022-10-12T19:55:40.180Z,4.90
2022-10-12T19:58:07.590Z,5.45
2022-10-12T20:00:35.955Z,4.97
2022-10-12T20:03:05.385Z,4.78
2022-10-12T20:05:31.871Z,8.10
2022-10-12T20:07:58.378Z,5.87
2022-10-12T20:10:25.022Z,6.68
2022-10-12T20:12:51.648Z,6.45
2022-10-12T20:15:18.275Z,6.30
2022-10-12T20:17:44.832Z,6.10
2022-10-12T20:20:11.483Z,6.63
2022-10-12T20:22:38.195Z,6.63
2022-10-12T20:25:09.330Z,7.38
2022-10-12T20:27:36.620Z,6.50
2022-10-12T20:30:04.332Z,6.65
2022-10-12T20:32:30.907Z,7.10
2022-10-12T20:34:57.426Z,6.72
2022-10-12T20:37:23.966Z,6.75
2022-10-12T20:39:51.730Z,6.93
2022-10-12T20:42:21.889Z,6.80
2022-10-12T20:44:49.083Z,6.73
2022-10-12T20:47:15.902Z,7.18
2022-10-12T20:49:42.494Z,6.22
2022-10-12T20:52:09.668Z,7.15
2022-10-12T20:54:37.190Z,6.55
2022-10-12T20:57:04.887Z,7.10
2022-10-12T20:59:34.421Z,7.88
2022-10-12T21:02:00.965Z,7.75
2022-10-12T21:04:28.371Z,7.07
2022-10-12T21:06:54.891Z,8.10
2022-10-12T21:09:21.505Z,6.70
2022-10-12T21:11:48.032Z,6.63
2022-10-12T21:14:14.602Z,7.43
2022-10-12T21:16:41.734Z,7.45
2022-10-12T21:19:08.421Z,6.80
2022-10-12T21:21:34.900Z,7.17
2022-10-12T21:24:01.750Z,6.82
2022-10-12T21:26:30.702Z,7.85
2022-10-12T21:28:58.794Z,6.78
2022-10-12T21:31:30.979Z,8.90
2022-10-12T21:34:01.254Z,7.03
2022-10-12T21:36:29.376Z,7.13
2022-10-12T21:38:56.450Z,7.47
2022-10-12T21:41:25.812Z,8.45
2022-10-12T21:43:53.283Z,6.45
2022-10-12T21:46:23.386Z,6.73
2022-10-12T21:48:50.429Z,7.63
2022-10-12T21:51:18.091Z,8.10
2022-10-12T21:53:44.804Z,7.78
2022-10-12T21:56:16.231Z,7.45
2022-10-12T21:58:42.741Z,7.17
2022-10-12T22:01:14.663Z,7.35
2022-10-12T22:03:42.696Z,7.68
2022-10-12T22:06:18.305Z,7.93
2022-10-12T22:08:49.254Z,8.10
2022-10-12T22:11:15.742Z,8.00
2022-10-12T22:13:42.449Z,6.93
2022-10-12T22:16:12.840Z,8.38
2022-10-12T22:18:40.449Z,7.20
2022-10-12T22:21:10.798Z,8.23
2022-10-12T22:23:37.257Z,7.43
2022-10-12T22:26:16.349Z,8.30
2022-10-12T22:28:43.030Z,7.28
2022-10-12T22:31:11.649Z,8.88
2022-10-12T22:33:38.339Z,8.02
2022-10-12T22:36:07.370Z,7.70
2022-10-12T22:38:34.984Z,7.32
2022-10-12T22:41:16.452Z,8.45
2022-10-12T22:43:43.019Z,7.78
2022-10-12T22:46:09.825Z,8.70
2022-10-12T22:48:37.348Z,7.23
2022-10-12T22:51:05.823Z,8.07
2022-10-12T22:53:33.280Z,7.80
2022-10-12T22:56:02.445Z,7.82
2022-10-12T22:58:29.325Z,8.52
2022-10-12T23:01:22.214Z,8.10
2022-10-12T23:03:48.966Z,8.68
2022-10-12T23:06:17.669Z,7.60
2022-10-12T23:08:44.613Z,7.97
2022-10-12T23:11:18.016Z,8.38
2022-10-12T23:13:45.081Z,9.00
2022-10-12T23:16:13.997Z,7.22
2022-10-12T23:18:40.709Z,9.18
2022-10-12T23:21:09.848Z,8.55
2022-10-12T23:23:38.096Z,7.68
2022-10-12T23:26:10.977Z,8.83
2022-10-12T23:28:37.807Z,8.63
2022-10-12T23:31:05.882Z,8.90
2022-10-12T23:33:33.177Z,8.82
2022-10-12T23:36:03.192Z,7.43
2022-10-12T23:38:31.680Z,7.60
2022-10-12T23:40:58.212Z,7.88
2022-10-12T23:43:26.088Z,8.32
2022-10-12T23:45:53.663Z,8.55
2022-10-12T23:48:20.432Z,8.60
2022-10-12T23:50:47.078Z,8.20
2022-10-12T23:53:14.305Z,8.80
2022-10-12T23:55:40.775Z,8.98
2022-10-12T23:58:07.322Z,7.90
